createdAt,value
2022-08-28T00:00:09.399Z,0
2022-08-28T00:01:09.394Z,0
2022-08-28T00:02:09.393Z,0
2022-08-28T00:03:09.458Z,0
2022-08-28T00:04:09.386Z,0
2022-08-28T00:05:09.437Z,0
2022-08-28T00:06:09.384Z,0
2022-08-28T00:07:09.394Z,0
2022-08-28T00:08:09.446Z,0
2022-08-28T00:09:09.401Z,0
2022-08-28T00:10:09.386Z,0
2022-08-28T00:11:09.389Z,0
2022-08-28T00:12:09.392Z,0
2022-08-28T00:13:09.420Z,0
2022-08-28T00:14:09.392Z,0
2022-08-28T00:15:09.663Z,0
2022-08-28T00:16:09.430Z,0
2022-08-28T00:17:09.395Z,0
2022-08-28T00:18:09.457Z,0
2022-08-28T00:19:09.400Z,0
2022-08-28T00:20:09.407Z,0
2022-08-28T00:21:09.404Z,0
2022-08-28T00:22:09.403Z,0
2022-08-28T00:23:09.402Z,0
2022-08-28T00:24:09.399Z,0
2022-08-28T00:25:09.410Z,0
2022-08-28T00:26:09.407Z,0
2022-08-28T00:27:09.411Z,0
2022-08-28T00:28:09.419Z,0
2022-08-28T00:29:09.418Z,0
2022-08-28T00:30:09.414Z,0
2022-08-28T00:31:09.438Z,0
2022-08-28T00:32:09.418Z,0
2022-08-28T00:33:09.427Z,0
2022-08-28T00:34:09.419Z,0
2022-08-28T00:35:09.432Z,0
2022-08-28T00:36:09.414Z,0
2022-08-28T00:37:09.421Z,0
2022-08-28T00:38:09.488Z,0
2022-08-28T00:39:09.423Z,0
2022-08-28T00:40:09.497Z,0
2022-08-28T00:41:09.425Z,0
2022-08-28T00:42:09.428Z,0
2022-08-28T00:43:09.432Z,0
2022-08-28T00:44:09.435Z,0
2022-08-28T00:45:09.426Z,0
2022-08-28T00:46:09.487Z,0
2022-08-28T00:47:09.430Z,0
2022-08-28T00:48:09.485Z,0
2022-08-28T00:49:09.438Z,0
2022-08-28T00:50:09.435Z,0
2022-08-28T00:51:09.440Z,0
2022-08-28T00:52:11.742Z,0
2022-08-28T00:53:09.442Z,0
2022-08-28T00:54:09.445Z,0
2022-08-28T00:55:09.438Z,0
2022-08-28T00:56:12.874Z,0
2022-08-28T00:57:09.451Z,0
2022-08-28T00:58:09.448Z,0
2022-08-28T00:59:09.446Z,0
2022-08-28T01:00:09.452Z,0
2022-08-28T01:01:09.449Z,0
2022-08-28T01:02:09.456Z,0
2022-08-28T01:03:09.497Z,0
2022-08-28T01:04:09.458Z,0
2022-08-28T01:05:09.450Z,0
2022-08-28T01:06:09.449Z,0
2022-08-28T01:07:09.457Z,0
2022-08-28T01:08:09.511Z,0
2022-08-28T01:09:09.460Z,0
2022-08-28T01:10:09.461Z,0
2022-08-28T01:11:09.455Z,0
2022-08-28T01:12:09.463Z,0
2022-08-28T01:13:09.466Z,0
2022-08-28T01:14:09.470Z,0
2022-08-28T01:15:09.461Z,0
2022-08-28T01:16:09.609Z,0
2022-08-28T01:17:09.510Z,0
2022-08-28T01:18:09.564Z,0
2022-08-28T01:19:09.470Z,0
2022-08-28T01:20:09.484Z,0
2022-08-28T01:21:09.468Z,0
2022-08-28T01:22:09.478Z,0
2022-08-28T01:23:09.474Z,0
2022-08-28T01:24:09.474Z,0
2022-08-28T01:25:09.477Z,0
2022-08-28T01:26:10.863Z,0
2022-08-28T01:27:09.469Z,0
2022-08-28T01:28:09.473Z,0
2022-08-28T01:29:09.477Z,0
2022-08-28T01:30:09.479Z,0
2022-08-28T01:31:09.529Z,0
2022-08-28T01:32:09.488Z,0
2022-08-28T01:33:09.485Z,0
2022-08-28T01:34:09.473Z,0
2022-08-28T01:35:09.496Z,0
2022-08-28T01:36:09.492Z,0
2022-08-28T01:37:09.487Z,0
2022-08-28T01:38:09.559Z,0
2022-08-28T01:39:09.486Z,0
2022-08-28T01:40:09.552Z,0
2022-08-28T01:41:09.494Z,0
2022-08-28T01:42:09.489Z,0
2022-08-28T01:43:09.501Z,0
2022-08-28T01:44:09.493Z,0
2022-08-28T01:45:09.490Z,0
2022-08-28T01:46:09.548Z,3.5
2022-08-28T01:47:09.486Z,1.1
2022-08-28T01:48:09.587Z,3
2022-08-28T01:49:09.493Z,0
2022-08-28T01:50:09.491Z,1.9000000000000001
2022-08-28T01:51:09.505Z,3.6
2022-08-28T01:52:09.501Z,0
2022-08-28T01:53:10.035Z,0
2022-08-28T01:54:09.809Z,0
2022-08-28T01:55:09.500Z,0
2022-08-28T01:56:09.501Z,0
2022-08-28T01:57:09.507Z,0
2022-08-28T01:58:09.673Z,0
2022-08-28T01:59:09.504Z,0
2022-08-28T02:00:09.509Z,0
2022-08-28T02:01:09.638Z,0
2022-08-28T02:02:09.591Z,0
2022-08-28T02:03:09.512Z,0
2022-08-28T02:04:09.578Z,0
2022-08-28T02:05:09.507Z,0
2022-08-28T02:06:09.500Z,0
2022-08-28T02:07:09.513Z,0
2022-08-28T02:08:09.601Z,0
2022-08-28T02:09:10.305Z,0
2022-08-28T02:10:09.507Z,0
2022-08-28T02:11:09.512Z,0
2022-08-28T02:12:09.514Z,0
2022-08-28T02:13:09.518Z,0
2022-08-28T02:14:09.520Z,0
2022-08-28T02:15:09.511Z,0
2022-08-28T02:16:09.731Z,0
2022-08-28T02:17:09.521Z,0
2022-08-28T02:18:09.638Z,0
2022-08-28T02:19:09.523Z,0
2022-08-28T02:20:09.523Z,0
2022-08-28T02:21:09.522Z,0
2022-08-28T02:22:09.528Z,0
2022-08-28T02:23:09.517Z,0
2022-08-28T02:24:09.530Z,0
2022-08-28T02:25:09.529Z,0
2022-08-28T02:26:09.529Z,0
2022-08-28T02:27:09.531Z,0
2022-08-28T02:28:09.592Z,0
2022-08-28T02:29:09.535Z,0
2022-08-28T02:30:09.530Z,0
2022-08-28T02:31:09.622Z,0
2022-08-28T02:32:09.537Z,0
2022-08-28T02:33:09.540Z,0
2022-08-28T02:34:09.545Z,0
2022-08-28T02:35:10.082Z,0
2022-08-28T02:36:09.543Z,0
2022-08-28T02:37:09.538Z,0
2022-08-28T02:38:09.586Z,0
2022-08-28T02:39:09.547Z,0
2022-08-28T02:40:09.589Z,0
2022-08-28T02:41:09.548Z,0
2022-08-28T02:42:09.549Z,0
2022-08-28T02:43:09.541Z,0
2022-08-28T02:44:09.553Z,0
2022-08-28T02:45:09.538Z,0
2022-08-28T02:46:09.594Z,0
2022-08-28T02:47:09.551Z,0
2022-08-28T02:48:12.073Z,0
2022-08-28T02:49:09.555Z,0
2022-08-28T02:50:09.550Z,0
2022-08-28T02:51:09.546Z,0
2022-08-28T02:52:09.553Z,0
2022-08-28T02:53:09.550Z,0
2022-08-28T02:54:09.561Z,0
2022-08-28T02:55:09.551Z,0
2022-08-28T02:56:09.569Z,0
2022-08-28T02:57:09.560Z,0
2022-08-28T02:58:09.721Z,0
2022-08-28T02:59:09.556Z,0
2022-08-28T03:00:09.560Z,0
2022-08-28T03:01:09.627Z,0
2022-08-28T03:02:09.580Z,0
2022-08-28T03:03:09.555Z,0
2022-08-28T03:04:09.565Z,0
2022-08-28T03:05:09.574Z,0
2022-08-28T03:06:09.571Z,0
2022-08-28T03:07:09.569Z,0
2022-08-28T03:08:09.594Z,0
2022-08-28T03:09:09.574Z,0
2022-08-28T03:10:09.572Z,0
2022-08-28T03:11:09.565Z,0
2022-08-28T03:12:09.580Z,0
2022-08-28T03:13:09.574Z,0
2022-08-28T03:14:09.581Z,0
2022-08-28T03:15:09.580Z,0
2022-08-28T03:16:09.576Z,0
2022-08-28T03:17:09.572Z,0
2022-08-28T03:18:11.280Z,0
2022-08-28T03:19:09.582Z,0
2022-08-28T03:20:09.581Z,0
2022-08-28T03:21:09.587Z,0
2022-08-28T03:22:09.584Z,0
2022-08-28T03:23:09.592Z,0
2022-08-28T03:24:09.586Z,0
2022-08-28T03:25:09.583Z,0
2022-08-28T03:26:09.592Z,0
2022-08-28T03:27:09.580Z,0
2022-08-28T03:28:09.646Z,0
2022-08-28T03:29:09.588Z,0
2022-08-28T03:30:09.589Z,0
2022-08-28T03:31:09.627Z,0
2022-08-28T03:32:09.594Z,0
2022-08-28T03:33:09.597Z,0
2022-08-28T03:34:09.593Z,0
2022-08-28T03:35:09.594Z,0
2022-08-28T03:36:09.595Z,0
2022-08-28T03:37:09.594Z,0
2022-08-28T03:38:09.636Z,0
2022-08-28T03:39:09.598Z,0
2022-08-28T03:40:09.629Z,0
2022-08-28T03:41:09.591Z,0
2022-08-28T03:42:09.601Z,0
2022-08-28T03:43:09.601Z,0
2022-08-28T03:44:09.608Z,0
2022-08-28T03:45:09.606Z,0
2022-08-28T03:46:09.639Z,0
2022-08-28T03:47:09.604Z,0
2022-08-28T03:48:09.656Z,0
2022-08-28T03:49:09.603Z,0
2022-08-28T03:50:10.375Z,0
2022-08-28T03:51:09.603Z,0
2022-08-28T03:52:09.604Z,0
2022-08-28T03:53:09.609Z,0
2022-08-28T03:54:09.610Z,0
2022-08-28T03:55:09.601Z,0
2022-08-28T03:56:09.610Z,0
2022-08-28T03:57:09.611Z,0
2022-08-28T03:58:09.679Z,0
2022-08-28T03:59:09.616Z,0
2022-08-28T04:00:09.628Z,0
2022-08-28T04:01:09.673Z,0
2022-08-28T04:02:09.618Z,0
2022-08-28T04:03:09.683Z,0
2022-08-28T04:04:09.616Z,0
2022-08-28T04:05:09.615Z,0
2022-08-28T04:06:09.611Z,0
2022-08-28T04:07:09.617Z,0
2022-08-28T04:08:09.674Z,0
2022-08-28T04:09:09.624Z,0
2022-08-28T04:10:09.627Z,0
2022-08-28T04:11:09.619Z,0
2022-08-28T04:12:09.612Z,0
2022-08-28T04:13:09.610Z,0
2022-08-28T04:14:09.614Z,0
2022-08-28T04:15:09.620Z,0
2022-08-28T04:16:09.670Z,0
2022-08-28T04:17:09.640Z,0
2022-08-28T04:18:09.708Z,0
2022-08-28T04:19:09.622Z,0
2022-08-28T04:20:09.626Z,0
2022-08-28T04:21:09.623Z,0
2022-08-28T04:22:09.614Z,0
2022-08-28T04:23:09.624Z,0
2022-08-28T04:24:09.974Z,0
2022-08-28T04:25:09.625Z,0
2022-08-28T04:26:09.614Z,0
2022-08-28T04:27:09.625Z,0
2022-08-28T04:28:09.678Z,0
2022-08-28T04:29:09.626Z,0
2022-08-28T04:30:09.761Z,0
2022-08-28T04:31:09.623Z,0
2022-08-28T04:32:09.701Z,0
2022-08-28T04:33:09.629Z,0
2022-08-28T04:34:09.628Z,0
2022-08-28T04:35:09.630Z,0
2022-08-28T04:36:09.630Z,0
2022-08-28T04:37:09.629Z,0
2022-08-28T04:38:09.636Z,0
2022-08-28T04:39:09.633Z,0
2022-08-28T04:40:09.661Z,0
2022-08-28T04:41:09.626Z,0
2022-08-28T04:42:09.622Z,0
2022-08-28T04:43:09.632Z,0
2022-08-28T04:44:09.629Z,0
2022-08-28T04:45:09.627Z,0
2022-08-28T04:46:09.744Z,0
2022-08-28T04:47:09.634Z,0
2022-08-28T04:48:10.477Z,0
2022-08-28T04:49:09.623Z,0
2022-08-28T04:50:09.634Z,0
2022-08-28T04:51:09.642Z,0
2022-08-28T04:52:09.634Z,0
2022-08-28T04:53:09.627Z,0
2022-08-28T04:54:09.634Z,0
2022-08-28T04:55:09.636Z,0
2022-08-28T04:56:09.636Z,0
2022-08-28T04:57:09.640Z,0
2022-08-28T04:58:09.634Z,0
2022-08-28T04:59:09.638Z,0
2022-08-28T05:00:09.643Z,0
2022-08-28T05:01:09.706Z,0
2022-08-28T05:02:09.690Z,0
2022-08-28T05:03:09.642Z,0
2022-08-28T05:04:09.641Z,0
2022-08-28T05:05:09.649Z,0
2022-08-28T05:06:09.642Z,0
2022-08-28T05:07:09.643Z,0
2022-08-28T05:08:09.686Z,0
2022-08-28T05:09:09.653Z,0
2022-08-28T05:10:09.643Z,0
2022-08-28T05:11:09.639Z,0
2022-08-28T05:12:09.647Z,0
2022-08-28T05:13:09.645Z,0
2022-08-28T05:14:12.705Z,0
2022-08-28T05:15:09.648Z,0
2022-08-28T05:16:09.688Z,0
2022-08-28T05:17:09.653Z,0
2022-08-28T05:18:09.648Z,0
2022-08-28T05:19:09.645Z,0
2022-08-28T05:20:09.653Z,0
2022-08-28T05:21:12.681Z,0
2022-08-28T05:22:09.654Z,0
2022-08-28T05:23:09.654Z,0
2022-08-28T05:24:09.650Z,0
2022-08-28T05:25:09.658Z,0
2022-08-28T05:26:09.660Z,0
2022-08-28T05:27:09.667Z,0
2022-08-28T05:28:10.234Z,0
2022-08-28T05:29:09.656Z,0
2022-08-28T05:30:09.663Z,0
2022-08-28T05:31:09.710Z,0
2022-08-28T05:32:09.668Z,0
2022-08-28T05:33:09.672Z,0
2022-08-28T05:34:09.672Z,0
2022-08-28T05:35:09.669Z,0
2022-08-28T05:36:09.660Z,0
2022-08-28T05:37:09.666Z,0
2022-08-28T05:38:09.726Z,0
2022-08-28T05:39:09.686Z,0
2022-08-28T05:40:09.724Z,0
2022-08-28T05:41:09.674Z,0
2022-08-28T05:42:09.666Z,0
2022-08-28T05:43:09.669Z,0
2022-08-28T05:44:09.676Z,0
2022-08-28T05:45:09.677Z,0
2022-08-28T05:46:09.722Z,0
2022-08-28T05:47:09.668Z,0
2022-08-28T05:48:09.717Z,0
2022-08-28T05:49:10.344Z,0
2022-08-28T05:50:09.682Z,0
2022-08-28T05:51:09.684Z,0
2022-08-28T05:52:09.677Z,0
2022-08-28T05:53:09.675Z,0
2022-08-28T05:54:09.677Z,0
2022-08-28T05:55:09.686Z,0
2022-08-28T05:56:09.687Z,0
2022-08-28T05:57:09.679Z,0
2022-08-28T05:58:09.687Z,0
2022-08-28T05:59:09.687Z,0
2022-08-28T06:00:09.690Z,0
2022-08-28T06:01:09.697Z,0
2022-08-28T06:02:09.695Z,0
2022-08-28T06:03:09.686Z,0
2022-08-28T06:04:09.748Z,0
2022-08-28T06:05:09.681Z,0
2022-08-28T06:06:09.688Z,0
2022-08-28T06:07:09.681Z,0
2022-08-28T06:08:09.687Z,0
2022-08-28T06:09:09.686Z,0
2022-08-28T06:10:10.675Z,0
2022-08-28T06:11:09.693Z,0
2022-08-28T06:12:09.692Z,0
2022-08-28T06:13:09.694Z,0
2022-08-28T06:14:09.690Z,0
2022-08-28T06:15:09.690Z,0
2022-08-28T06:16:09.772Z,0
2022-08-28T06:17:09.694Z,0
2022-08-28T06:18:09.691Z,0
2022-08-28T06:19:09.699Z,0
2022-08-28T06:20:09.695Z,0
2022-08-28T06:21:09.700Z,0
2022-08-28T06:22:09.700Z,0
2022-08-28T06:23:09.704Z,0
2022-08-28T06:24:09.704Z,0
2022-08-28T06:25:09.701Z,0
2022-08-28T06:26:09.702Z,0
2022-08-28T06:27:09.706Z,0
2022-08-28T06:28:09.739Z,0
2022-08-28T06:29:09.706Z,0
2022-08-28T06:30:09.708Z,0
2022-08-28T06:31:23.133Z,0
2022-08-28T06:32:09.780Z,0
2022-08-28T06:33:09.713Z,0
2022-08-28T06:34:09.716Z,0
2022-08-28T06:35:09.709Z,0
2022-08-28T06:36:09.701Z,0
2022-08-28T06:37:09.710Z,0
2022-08-28T06:38:09.742Z,0
2022-08-28T06:39:09.715Z,0
2022-08-28T06:40:09.716Z,0
2022-08-28T06:41:09.713Z,0
2022-08-28T06:42:09.725Z,0
2022-08-28T06:43:09.724Z,0
2022-08-28T06:44:09.717Z,0
2022-08-28T06:45:09.720Z,0
2022-08-28T06:46:09.866Z,0
2022-08-28T06:47:09.715Z,0
2022-08-28T06:48:09.713Z,0
2022-08-28T06:49:09.720Z,0
2022-08-28T06:50:09.720Z,0
2022-08-28T06:51:09.715Z,0
2022-08-28T06:52:09.721Z,0
2022-08-28T06:53:09.725Z,0
2022-08-28T06:54:09.721Z,0
2022-08-28T06:55:09.728Z,0
2022-08-28T06:56:09.725Z,0
2022-08-28T06:57:09.730Z,0
2022-08-28T06:58:09.724Z,0
2022-08-28T06:59:09.721Z,0
2022-08-28T07:00:09.729Z,0
2022-08-28T07:01:09.739Z,0
2022-08-28T07:02:09.864Z,0
2022-08-28T07:03:09.726Z,0
2022-08-28T07:04:09.735Z,0
2022-08-28T07:05:09.736Z,0
2022-08-28T07:06:09.739Z,0
2022-08-28T07:07:09.734Z,0
2022-08-28T07:08:09.732Z,0
2022-08-28T07:09:09.733Z,0
2022-08-28T07:10:09.743Z,0
2022-08-28T07:11:09.733Z,0
2022-08-28T07:12:09.743Z,0
2022-08-28T07:13:09.739Z,0
2022-08-28T07:14:09.739Z,0
2022-08-28T07:15:09.738Z,0
2022-08-28T07:16:09.823Z,0
2022-08-28T07:17:09.740Z,0
2022-08-28T07:18:09.747Z,0
2022-08-28T07:19:10.046Z,0
2022-08-28T07:20:09.746Z,0
2022-08-28T07:21:12.421Z,0
2022-08-28T07:22:09.741Z,0
2022-08-28T07:23:09.746Z,0
2022-08-28T07:24:09.746Z,0
2022-08-28T07:25:09.743Z,0
2022-08-28T07:26:09.741Z,0
2022-08-28T07:27:09.740Z,0
2022-08-28T07:28:09.746Z,0
2022-08-28T07:29:11.369Z,0
2022-08-28T07:30:09.749Z,0
2022-08-28T07:31:09.870Z,0
2022-08-28T07:32:09.752Z,0
2022-08-28T07:33:09.748Z,0
2022-08-28T07:34:09.764Z,0
2022-08-28T07:35:09.739Z,0
2022-08-28T07:36:15.673Z,0
2022-08-28T07:37:13.410Z,0
2022-08-28T07:38:09.748Z,0
2022-08-28T07:39:09.750Z,0
2022-08-28T07:40:09.788Z,0
2022-08-28T07:41:09.750Z,0
2022-08-28T07:42:09.756Z,0
2022-08-28T07:43:09.750Z,0
2022-08-28T07:44:09.756Z,0
2022-08-28T07:45:09.758Z,0
2022-08-28T07:46:09.816Z,0
2022-08-28T07:47:09.746Z,0
2022-08-28T07:48:11.596Z,0
2022-08-28T07:49:09.753Z,0
2022-08-28T07:50:09.746Z,0
2022-08-28T07:51:09.746Z,0
2022-08-28T07:52:09.752Z,0
2022-08-28T07:53:09.752Z,0
2022-08-28T07:54:11.627Z,0
2022-08-28T07:55:09.747Z,0
2022-08-28T07:56:09.749Z,0
2022-08-28T07:57:09.747Z,0
2022-08-28T07:58:09.801Z,0
2022-08-28T07:59:09.749Z,0
2022-08-28T08:00:09.754Z,0
2022-08-28T08:01:09.773Z,0
2022-08-28T08:02:09.749Z,0
2022-08-28T08:03:09.773Z,0
2022-08-28T08:04:09.744Z,0
2022-08-28T08:05:09.749Z,0
2022-08-28T08:06:09.753Z,0
2022-08-28T08:07:09.758Z,0
2022-08-28T08:08:09.754Z,0
2022-08-28T08:09:09.750Z,0
2022-08-28T08:10:09.755Z,0
2022-08-28T08:11:10.664Z,0
2022-08-28T08:12:10.278Z,0
2022-08-28T08:13:09.750Z,0
2022-08-28T08:14:09.750Z,0
2022-08-28T08:15:09.754Z,0
2022-08-28T08:16:09.786Z,0
2022-08-28T08:17:09.752Z,0
2022-08-28T08:18:09.749Z,0
2022-08-28T08:19:10.105Z,0
2022-08-28T08:20:09.758Z,0
2022-08-28T08:21:09.753Z,0
2022-08-28T08:22:09.749Z,0
2022-08-28T08:23:09.755Z,0
2022-08-28T08:24:09.754Z,0
2022-08-28T08:25:09.759Z,0
2022-08-28T08:26:09.755Z,0
2022-08-28T08:27:09.757Z,0
2022-08-28T08:28:09.750Z,0
2022-08-28T08:29:09.752Z,0
2022-08-28T08:30:09.751Z,0
2022-08-28T08:31:09.813Z,0
2022-08-28T08:32:09.753Z,0
2022-08-28T08:33:09.755Z,0
2022-08-28T08:34:09.755Z,0
2022-08-28T08:35:09.756Z,0
2022-08-28T08:36:09.757Z,0
2022-08-28T08:37:09.764Z,0
2022-08-28T08:38:09.763Z,0
2022-08-28T08:39:09.869Z,0
2022-08-28T08:40:10.771Z,0
2022-08-28T08:41:09.757Z,0
2022-08-28T08:42:09.771Z,0
2022-08-28T08:43:09.759Z,0
2022-08-28T08:44:09.766Z,0
2022-08-28T08:45:09.766Z,0
2022-08-28T08:46:09.834Z,0
2022-08-28T08:47:13.991Z,0
2022-08-28T08:48:09.806Z,0
2022-08-28T08:49:09.766Z,0
2022-08-28T08:50:09.765Z,0
2022-08-28T08:51:09.761Z,0
2022-08-28T08:52:09.762Z,0
2022-08-28T08:53:09.759Z,0
2022-08-28T08:54:09.762Z,0
2022-08-28T08:55:09.769Z,0
2022-08-28T08:56:09.771Z,0
2022-08-28T08:57:09.762Z,0
2022-08-28T08:58:09.795Z,0
2022-08-28T08:59:09.773Z,0
2022-08-28T09:00:13.638Z,0
2022-08-28T09:01:09.876Z,0
2022-08-28T09:02:09.764Z,0
2022-08-28T09:03:09.809Z,0
2022-08-28T09:04:09.772Z,0
2022-08-28T09:05:09.773Z,0
2022-08-28T09:06:09.765Z,0
2022-08-28T09:07:09.767Z,0
2022-08-28T09:08:09.775Z,0
2022-08-28T09:09:09.767Z,0
2022-08-28T09:10:09.771Z,0
2022-08-28T09:11:09.770Z,0
2022-08-28T09:12:09.780Z,0
2022-08-28T09:13:09.773Z,0
2022-08-28T09:14:09.772Z,0
2022-08-28T09:15:09.779Z,0
2022-08-28T09:16:09.821Z,0
2022-08-28T09:17:09.767Z,0
2022-08-28T09:18:09.816Z,0
2022-08-28T09:19:09.772Z,0
2022-08-28T09:20:09.776Z,0
2022-08-28T09:21:09.776Z,0
2022-08-28T09:22:09.775Z,0
2022-08-28T09:23:12.962Z,0
2022-08-28T09:24:10.919Z,0
2022-08-28T09:25:09.778Z,0
2022-08-28T09:26:09.777Z,0
2022-08-28T09:27:13.789Z,0
2022-08-28T09:28:09.779Z,0
2022-08-28T09:29:09.772Z,0
2022-08-28T09:30:09.773Z,0
2022-08-28T09:31:09.824Z,0
2022-08-28T09:32:09.773Z,0
2022-08-28T09:33:09.778Z,0
2022-08-28T09:34:09.777Z,0
2022-08-28T09:35:09.780Z,0
2022-08-28T09:36:09.777Z,0
2022-08-28T09:37:09.782Z,0
2022-08-28T09:38:09.768Z,0
2022-08-28T09:39:09.780Z,0
2022-08-28T09:40:09.856Z,0
2022-08-28T09:41:09.782Z,0
2022-08-28T09:42:09.792Z,0
2022-08-28T09:43:09.774Z,0
2022-08-28T09:44:09.771Z,0
2022-08-28T09:45:09.821Z,0
2022-08-28T09:46:09.807Z,0
2022-08-28T09:47:09.777Z,0
2022-08-28T09:48:09.774Z,0
2022-08-28T09:49:09.778Z,0
2022-08-28T09:50:09.779Z,0
2022-08-28T09:51:09.783Z,0
2022-08-28T09:52:09.781Z,0
2022-08-28T09:53:09.784Z,0
2022-08-28T09:54:09.775Z,0
2022-08-28T09:55:09.780Z,0
2022-08-28T09:56:09.776Z,0
2022-08-28T09:57:09.775Z,0
2022-08-28T09:58:09.810Z,0
2022-08-28T09:59:09.785Z,0
2022-08-28T10:00:09.786Z,0
2022-08-28T10:01:09.817Z,0
2022-08-28T10:02:09.831Z,0
2022-08-28T10:03:09.778Z,0
2022-08-28T10:04:09.838Z,0
2022-08-28T10:05:09.779Z,0
2022-08-28T10:06:09.782Z,0
2022-08-28T10:07:09.776Z,0
2022-08-28T10:08:09.779Z,0
2022-08-28T10:09:09.774Z,0
2022-08-28T10:10:09.788Z,0
2022-08-28T10:11:09.787Z,0
2022-08-28T10:12:09.780Z,0
2022-08-28T10:13:09.786Z,0
2022-08-28T10:14:09.779Z,4.4
2022-08-28T10:15:09.778Z,0
2022-08-28T10:16:09.981Z,5.5
2022-08-28T10:17:09.780Z,6.6000000000000005
2022-08-28T10:18:09.790Z,0
2022-08-28T10:19:09.779Z,0
2022-08-28T10:20:09.777Z,0
2022-08-28T10:21:09.782Z,0
2022-08-28T10:22:09.780Z,0
2022-08-28T10:23:10.495Z,0
2022-08-28T10:24:09.773Z,0
2022-08-28T10:25:09.782Z,0
2022-08-28T10:26:09.780Z,2
2022-08-28T10:27:09.784Z,0
2022-08-28T10:28:09.838Z,0
2022-08-28T10:29:09.794Z,0
2022-08-28T10:30:13.063Z,0
2022-08-28T10:31:09.839Z,0
2022-08-28T10:32:09.796Z,4.2
2022-08-28T10:33:09.789Z,2.9000000000000004
2022-08-28T10:34:09.801Z,0
2022-08-28T10:35:09.796Z,1.3
2022-08-28T10:36:27.368Z,0
2022-08-28T10:37:09.797Z,0
2022-08-28T10:38:09.866Z,0
2022-08-28T10:39:09.804Z,0
2022-08-28T10:40:09.844Z,0
2022-08-28T10:41:09.800Z,0
2022-08-28T10:42:09.800Z,0
2022-08-28T10:43:09.807Z,0
2022-08-28T10:44:09.800Z,0
2022-08-28T10:45:09.809Z,0
2022-08-28T10:46:09.838Z,0
2022-08-28T10:47:09.805Z,0
2022-08-28T10:48:09.882Z,0
2022-08-28T10:49:09.803Z,2.3000000000000003
2022-08-28T10:50:09.807Z,2.3000000000000003
2022-08-28T10:51:09.808Z,0
2022-08-28T10:52:09.815Z,5.4
2022-08-28T10:53:09.808Z,3.7
2022-08-28T10:54:09.816Z,1.5
2022-08-28T10:55:09.816Z,2
2022-08-28T10:56:09.826Z,2.9000000000000004
2022-08-28T10:57:09.824Z,3.3000000000000003
2022-08-28T10:58:24.638Z,1.9000000000000001
2022-08-28T10:59:09.821Z,0
2022-08-28T11:00:09.822Z,0
2022-08-28T11:01:09.901Z,0
2022-08-28T11:02:09.864Z,0
2022-08-28T11:03:22.421Z,0
2022-08-28T11:04:09.827Z,5.7
2022-08-28T11:05:09.838Z,4
2022-08-28T11:06:09.832Z,3
2022-08-28T11:07:09.831Z,0
2022-08-28T11:08:09.869Z,0
2022-08-28T11:09:09.832Z,0
2022-08-28T11:10:09.832Z,1.4000000000000001
2022-08-28T11:11:09.836Z,0
2022-08-28T11:12:09.833Z,0
2022-08-28T11:13:09.905Z,0
2022-08-28T11:14:09.840Z,0
2022-08-28T11:15:09.844Z,0
2022-08-28T11:16:09.839Z,0
2022-08-28T11:17:09.863Z,2.5
2022-08-28T11:18:09.849Z,1.9000000000000001
2022-08-28T11:19:09.843Z,0
2022-08-28T11:20:09.843Z,0
2022-08-28T11:21:09.853Z,0
2022-08-28T11:22:09.851Z,2.9000000000000004
2022-08-28T11:23:09.868Z,3.6
2022-08-28T11:24:09.852Z,0
2022-08-28T11:25:09.990Z,0
2022-08-28T11:26:09.854Z,3.7
2022-08-28T11:27:09.856Z,2.1
2022-08-28T11:28:09.862Z,0
2022-08-28T11:29:09.856Z,0
2022-08-28T11:30:09.876Z,3
2022-08-28T11:31:09.929Z,3.5
2022-08-28T11:32:09.863Z,3.4000000000000004
2022-08-28T11:33:09.946Z,3.2
2022-08-28T11:34:09.857Z,1.8
2022-08-28T11:35:09.879Z,0
2022-08-28T11:36:09.866Z,2.7
2022-08-28T11:37:09.858Z,3.2
2022-08-28T11:38:09.868Z,6.7
2022-08-28T11:39:09.871Z,5.800000000000001
2022-08-28T11:40:09.903Z,4.1000000000000005
2022-08-28T11:41:09.861Z,3.6
2022-08-28T11:42:09.862Z,0
2022-08-28T11:43:09.863Z,1.5
2022-08-28T11:44:09.908Z,4
2022-08-28T11:45:09.865Z,4.9
2022-08-28T11:46:09.886Z,6.9
2022-08-28T11:47:09.875Z,5.5
2022-08-28T11:48:09.866Z,2.1
2022-08-28T11:49:09.870Z,1.9000000000000001
2022-08-28T11:50:09.875Z,5.6000000000000005
2022-08-28T11:51:09.876Z,1.1
2022-08-28T11:52:09.878Z,3.5
2022-08-28T11:53:09.898Z,2
2022-08-28T11:54:09.880Z,2.1
2022-08-28T11:55:09.880Z,0.9
2022-08-28T11:56:09.883Z,0.9
2022-08-28T11:57:09.876Z,1.2000000000000002
2022-08-28T11:59:10.010Z,2.4000000000000004
2022-08-28T12:00:09.888Z,2.1
2022-08-28T12:01:09.887Z,0
2022-08-28T12:02:09.922Z,0
2022-08-28T12:03:09.988Z,0
2022-08-28T12:04:09.935Z,0
2022-08-28T12:05:09.893Z,0
2022-08-28T12:06:09.887Z,2.8000000000000003
2022-08-28T12:07:09.888Z,2.4000000000000004
2022-08-28T12:08:09.900Z,0
2022-08-28T12:09:09.895Z,4.1000000000000005
2022-08-28T12:10:09.890Z,3.2
2022-08-28T12:11:09.894Z,1.7000000000000002
2022-08-28T12:12:09.894Z,3.9000000000000004
2022-08-28T12:13:09.971Z,5.1000000000000005
2022-08-28T12:14:09.891Z,5.1000000000000005
2022-08-28T12:15:09.895Z,2.2
2022-08-28T12:16:09.941Z,0
2022-08-28T12:17:09.899Z,0
2022-08-28T12:18:09.897Z,0
2022-08-28T12:19:09.887Z,0
2022-08-28T12:20:09.892Z,4.4
2022-08-28T12:21:09.899Z,3.5
2022-08-28T12:22:09.896Z,3.4000000000000004
2022-08-28T12:23:09.900Z,1.2000000000000002
2022-08-28T12:24:10.085Z,4.5
2022-08-28T12:25:09.903Z,5.2
2022-08-28T12:26:09.908Z,4
2022-08-28T12:27:09.902Z,4.4
2022-08-28T12:28:12.850Z,1.4000000000000001
2022-08-28T12:29:09.909Z,6.9
2022-08-28T12:30:09.908Z,2.7
2022-08-28T12:31:09.989Z,3.7
2022-08-28T12:32:09.918Z,1.9000000000000001
2022-08-28T12:33:09.904Z,2.3000000000000003
2022-08-28T12:34:09.908Z,2.9000000000000004
2022-08-28T12:35:09.904Z,1.3
2022-08-28T12:36:09.913Z,0
2022-08-28T12:37:09.913Z,0
2022-08-28T12:38:09.914Z,0
2022-08-28T12:39:09.908Z,9.3
2022-08-28T12:40:09.940Z,4.4
2022-08-28T12:41:09.916Z,6.300000000000001
2022-08-28T12:42:09.913Z,1.1
2022-08-28T12:43:10.017Z,4
2022-08-28T12:44:09.913Z,5.7
2022-08-28T12:45:09.921Z,6
2022-08-28T12:46:19.161Z,8.700000000000001
2022-08-28T12:47:09.916Z,4.5
2022-08-28T12:48:09.923Z,5.1000000000000005
2022-08-28T12:49:09.921Z,2.4000000000000004
2022-08-28T12:50:09.928Z,4
2022-08-28T12:51:09.921Z,3.8000000000000003
2022-08-28T12:52:09.923Z,1.6
2022-08-28T12:53:09.926Z,5.5
2022-08-28T12:54:09.919Z,1.3
2022-08-28T12:55:09.933Z,3.3000000000000003
2022-08-28T12:56:09.925Z,0.5
2022-08-28T12:57:09.923Z,0
2022-08-28T12:58:12.977Z,0
2022-08-28T12:59:09.932Z,0
2022-08-28T13:00:09.930Z,7.5
2022-08-28T13:01:10.069Z,3.3000000000000003
2022-08-28T13:02:10.059Z,4.6000000000000005
2022-08-28T13:03:09.977Z,6.6000000000000005
2022-08-28T13:04:09.937Z,6.6000000000000005
2022-08-28T13:05:09.929Z,0
2022-08-28T13:06:09.935Z,0
2022-08-28T13:07:09.934Z,0
2022-08-28T13:08:09.937Z,0
2022-08-28T13:09:09.938Z,5.7
2022-08-28T13:10:09.947Z,2.9000000000000004
2022-08-28T13:11:09.947Z,3.7
2022-08-28T13:12:09.939Z,3.4000000000000004
2022-08-28T13:13:09.932Z,3.5
2022-08-28T13:14:09.938Z,1.9000000000000001
2022-08-28T13:15:09.937Z,4.9
2022-08-28T13:16:09.992Z,5.4
2022-08-28T13:17:09.945Z,5
2022-08-28T13:18:09.939Z,3.5
2022-08-28T13:19:09.938Z,3.5
2022-08-28T13:20:09.948Z,2.8000000000000003
2022-08-28T13:21:09.952Z,2.7
2022-08-28T13:22:09.947Z,2
2022-08-28T13:23:09.941Z,4.1000000000000005
2022-08-28T13:24:09.946Z,5
2022-08-28T13:25:09.943Z,4.800000000000001
2022-08-28T13:26:09.941Z,5.300000000000001
2022-08-28T13:27:09.938Z,6.6000000000000005
2022-08-28T13:28:09.950Z,6.4
2022-08-28T13:29:09.950Z,4.6000000000000005
2022-08-28T13:30:09.936Z,6.6000000000000005
2022-08-28T13:31:10.016Z,6
2022-08-28T13:32:09.951Z,4.800000000000001
2022-08-28T13:33:09.984Z,6.5
2022-08-28T13:34:09.942Z,5.5
2022-08-28T13:35:09.955Z,7.9
2022-08-28T13:36:09.943Z,9.700000000000001
2022-08-28T13:37:14.862Z,9.9
2022-08-28T13:38:09.950Z,9.9
2022-08-28T13:39:09.952Z,11.700000000000001
2022-08-28T13:40:19.919Z,9.9
2022-08-28T13:41:10.016Z,4.6000000000000005
2022-08-28T13:42:09.956Z,9.600000000000001
2022-08-28T13:43:11.005Z,9
2022-08-28T13:44:09.953Z,6.800000000000001
2022-08-28T13:45:09.957Z,5.9
2022-08-28T13:46:09.974Z,8
2022-08-28T13:47:09.955Z,7.1000000000000005
2022-08-28T13:48:09.956Z,9
2022-08-28T13:49:09.952Z,6.5
2022-08-28T13:50:09.952Z,4.800000000000001
2022-08-28T13:51:10.898Z,7.9
2022-08-28T13:52:09.951Z,6.300000000000001
2022-08-28T13:53:09.950Z,6.1000000000000005
2022-08-28T13:54:09.951Z,6.300000000000001
2022-08-28T13:55:09.957Z,3.6
2022-08-28T13:56:09.956Z,8.1
2022-08-28T13:57:09.951Z,4.5
2022-08-28T13:58:09.961Z,7.4
2022-08-28T13:59:09.957Z,5.9
2022-08-28T14:00:09.953Z,7.6000000000000005
2022-08-28T14:01:10.031Z,10.600000000000001
2022-08-28T14:02:10.101Z,13.100000000000001